Latest Weather Observations for Cape Naturaliste

IDW60801

Issued at 1:02 pm WST Tuesday 30 June 2015 (issued every 30 minutes, with the page automatically refreshed every 10 minutes)

About weather observations | Map of weather stations | Latest weather observations for WA | Other Formats
Station Details ID: 009519 Name: CAPE NATURALISTE Lat: -33.54 Lon: 115.02 Height: 109.0 m
Data from the previous 72 hours. | See also: Recent months at Cape Naturaliste
Date/Time
WST
Temp
°C
App
Temp
°C
Dew
Point
Rel
Hum
%
Delta-T
°C
Wind Press
QNH
hPa
Press
MSL
hPa
Rain
since 9 am
mm
Dir
 
Spd
km/h
Gust
km/h
Spd
kts
Gust
kts
30/01:00pm 17.3 14.3 12.0 71 2.9 E 19 24 10 13 1021.0 1020.9 0.0
30/12:30pm 16.8 14.2 11.9 73 2.7 E 17 20 9 11 1021.3 1021.2 0.0
30/12:00pm 16.0 13.2 11.4 74 2.5 E 17 20 9 11 1021.6 1021.5 0.0
30/11:30am 15.2 12.4 11.2 77 2.1 ESE 17 20 9 11 1022.2 1022.1 0.0
30/11:00am 15.2 12.7 11.2 77 2.1 ESE 15 19 8 10 1023.0 1022.9 0.0
30/10:30am 15.2 12.9 11.6 79 1.9 E 15 20 8 11 1023.2 1023.1 0.0
30/10:00am 14.6 11.7 11.0 79 1.9 ESE 17 20 9 11 1023.1 1023.0 0.0
30/09:30am 14.2 11.3 11.0 81 1.7 ESE 17 20 9 11 1022.9 1022.8 0.0
30/09:00am 13.4 10.0 10.4 82 1.6 SE 19 22 10 12 1022.7 1022.6 0.0
30/08:30am 12.8 9.9 9.8 82 1.5 ESE 15 17 8 9 1022.7 1022.6 0.0
30/08:00am 12.3 8.6 9.3 82 1.5 ESE 19 22 10 12 1022.1 1022.0 0.0
30/07:30am 12.4 9.1 9.4 82 1.5 ESE 17 20 9 11 1022.2 1022.1 0.0
30/07:00am 13.0 9.4 10.0 82 1.5 ESE 19 20 10 11 1022.2 1022.1 0.0
30/06:30am 12.8 9.9 9.6 81 1.6 ESE 15 19 8 10 1021.9 1021.8 0.0
30/06:00am 13.0 10.5 9.6 80 1.7 E 13 17 7 9 1022.2 1022.1 0.0
30/05:30am 12.9 10.3 9.4 79 1.8 ESE 13 17 7 9 1022.0 1021.9 0.0
30/05:00am 12.3 9.4 8.2 76 2.0 ESE 13 17 7 9 1022.1 1022.0 0.0
30/04:30am 13.2 9.8 9.3 77 2.0 ESE 17 20 9 11 1022.1 1022.0 0.0
30/04:00am 11.8 8.3 7.1 73 2.3 ESE 15 15 8 8 1021.9 1021.8 0.0
30/03:30am 11.9 8.4 7.0 72 2.4 SE 15 15 8 8 1022.1 1022.0 0.0
30/03:00am 12.0 8.4 6.9 71 2.4 ESE 15 17 8 9 1022.0 1021.9 0.0
30/02:30am 12.8 10.2 7.9 72 2.4 SE 11 13 6 7 1022.2 1022.1 0.0
30/02:00am 12.7 9.8 8.2 74 2.2 ESE 13 15 7 8 1022.1 1022.0 0.0
30/01:30am 12.7 10.0 8.8 77 2.0 ESE 13 15 7 8 1022.4 1022.3 0.0
30/01:00am 11.9 8.3 8.4 79 1.7 SE 17 22 9 12 1022.5 1022.4 0.0
30/12:30am 11.4 7.7 7.9 79 1.7 ESE 17 22 9 12 1022.6 1022.5 0.0
30/12:00am 11.5 7.2 7.8 78 1.8 ESE 20 24 11 13 1022.4 1022.3 0.0
 
Date/Time
WST
Temp
°C
App
Temp
°C
Dew
Point
Rel
Hum
%
Delta-T
°C
Wind Press
QNH
hPa
Press
MSL
hPa
Rain
since 9 am
mm
Dir
 
Spd
km/h
Gust
km/h
Spd
kts
Gust
kts
29/11:30pm 11.3 6.9 7.4 77 1.9 ESE 20 22 11 12 1022.4 1022.3 0.0
29/11:00pm 11.6 7.2 7.3 75 2.1 ESE 20 22 11 12 1022.7 1022.6 0.0
29/10:30pm 11.8 7.3 7.1 73 2.3 ESE 20 24 11 13 1022.9 1022.8 0.0
29/10:00pm 12.0 7.6 7.3 73 2.3 SE 20 22 11 12 1022.9 1022.8 0.0
29/09:30pm 12.3 7.9 7.6 73 2.3 SE 20 24 11 13 1023.1 1023.0 0.0
29/09:00pm 12.3 7.9 7.4 72 2.4 SE 20 22 11 12 1023.3 1023.2 0.0
29/08:30pm 12.4 8.0 7.5 72 2.4 ESE 20 20 11 11 1023.5 1023.4 0.0
29/08:00pm 12.3 7.9 7.4 72 2.4 ESE 20 22 11 12 1023.5 1023.4 0.0
29/07:30pm 12.2 7.7 7.1 71 2.5 ESE 20 24 11 13 1022.9 1022.8 0.0
29/07:00pm 12.2 7.8 7.3 72 2.4 SE 20 24 11 13 1022.8 1022.7 0.0
29/06:30pm 12.0 7.6 7.3 73 2.3 ESE 20 22 11 12 1023.0 1022.9 0.0
29/06:00pm 12.2 8.1 7.7 74 2.2 SE 19 20 10 11 1023.2 1023.1 0.0
29/05:30pm 12.6 8.6 8.1 74 2.2 ESE 19 19 10 10 1023.2 1023.1 0.0
29/05:00pm 13.5 10.7 8.6 72 2.5 ESE 13 17 7 9 1023.3 1023.2 0.0
29/04:30pm 14.5 12.4 9.7 73 2.5 SE 11 15 6 8 1023.5 1023.4 0.0
29/04:00pm 14.5 12.2 9.1 70 2.8 E 11 13 6 7 1023.5 1023.4 0.0
29/03:30pm 15.8 13.8 10.1 69 3.0 E 11 13 6 7 1023.5 1023.4 0.0
29/03:00pm 15.9 13.5 10.0 68 3.1 E 13 17 7 9 1023.4 1023.3 0.0
29/02:30pm 15.7 13.2 9.8 68 3.1 ESE 13 15 7 8 1023.4 1023.3 0.0
29/02:00pm 15.8 13.7 9.9 68 3.1 E 11 15 6 8 1023.5 1023.4 0.0
29/01:30pm 16.0 14.0 10.1 68 3.1 E 11 13 6 7 1023.7 1023.6 0.0
29/01:00pm 15.7 13.2 9.8 68 3.1 E 13 17 7 9 1024.1 1024.0 0.0
29/12:30pm 15.4 12.8 9.3 67 3.2 E 13 15 7 8 1024.5 1024.5 0.0
29/12:00pm 15.9 13.8 9.8 67 3.2 ESE 11 15 6 8 1024.9 1024.9 0.0
29/11:30am 15.5 12.2 9.6 68 3.1 ESE 17 20 9 11 1025.2 1025.2 0.0
29/11:00am 14.9 11.5 9.1 68 3.0 ESE 17 20 9 11 1025.4 1025.4 0.0
29/10:30am 14.2 10.3 8.8 70 2.7 ESE 19 24 10 13 1025.4 1025.4 0.0
29/10:00am 13.4 9.3 7.8 69 2.8 ESE 19 24 10 13 1025.5 1025.5 0.0
29/09:30am 12.2 7.6 6.7 69 2.6 ESE 20 26 11 14 1025.5 1025.5 0.0
29/09:00am 11.8 7.8 6.7 71 2.4 ESE 17 24 9 13 1025.4 1025.4 0.0
29/08:30am 11.1 6.7 6.6 74 2.1 ESE 19 24 10 13 1025.2 1025.2 0.0
29/08:00am 10.1 5.7 6.4 78 1.7 ESE 19 24 10 13 1025.0 1025.0 0.0
29/07:30am 9.0 3.8 5.7 80 1.5 SE 22 26 12 14 1025.0 1025.0 0.0
29/07:00am 9.0 3.8 5.7 80 1.5 SE 22 26 12 14 1025.0 1025.0 0.0
29/06:30am 8.7 3.9 5.4 80 1.5 SE 20 24 11 13 1024.9 1024.9 0.0
29/06:00am 8.8 4.0 5.4 79 1.5 ESE 20 24 11 13 1024.8 1024.8 0.0
29/05:30am 9.3 4.6 5.9 79 1.6 ESE 20 26 11 14 1024.9 1024.9 0.0
29/05:00am 9.6 5.0 6.3 80 1.5 ESE 20 26 11 14 1025.2 1025.2 0.0
29/04:30am 9.5 4.9 6.6 82 1.4 SE 20 26 11 14 1025.3 1025.3 0.0
29/04:00am 9.5 5.0 6.8 83 1.3 ESE 20 24 11 13 1025.4 1025.4 0.0
29/03:30am 9.6 5.1 7.0 84 1.2 ESE 20 24 11 13 1025.6 1025.6 0.0
29/03:00am 9.6 5.1 7.0 84 1.2 ESE 20 24 11 13 1025.8 1025.8 0.0
29/02:30am 9.9 5.5 7.3 84 1.2 ESE 20 22 11 12 1026.1 1026.1 0.0
29/02:00am 10.0 5.6 7.3 83 1.3 ESE 20 22 11 12 1026.3 1026.3 0.0
29/01:30am 10.4 6.0 7.6 83 1.4 ESE 20 20 11 11 1026.3 1026.3 0.0
29/01:00am 10.8 6.7 8.0 83 1.4 ESE 19 22 10 12 1026.5 1026.5 0.0
29/12:30am 11.1 7.1 8.1 82 1.5 ESE 19 22 10 12 1026.6 1026.6 0.0
29/12:00am 12.0 8.0 9.0 82 1.5 ESE 20 24 11 13 1026.7 1026.7 0.0
 
Date/Time
WST
Temp
°C
App
Temp
°C
Dew
Point
Rel
Hum
%
Delta-T
°C
Wind Press
QNH
hPa
Press
MSL
hPa
Rain
since 9 am
mm
Dir
 
Spd
km/h
Gust
km/h
Spd
kts
Gust
kts
28/11:30pm 11.7 8.2 8.7 82 1.5 ESE 17 20 9 11 1026.8 1026.8 0.0
28/11:00pm 11.6 8.1 8.6 82 1.5 ESE 17 20 9 11 1027.0 1027.0 0.0
28/10:30pm 11.5 7.5 8.4 81 1.5 ESE 19 24 10 13 1026.9 1026.9 0.0
28/10:00pm 11.6 7.4 8.1 79 1.7 ESE 20 24 11 13 1026.8 1026.8 0.0
28/09:30pm 11.0 6.4 6.7 75 2.0 ESE 20 24 11 13 1026.9 1026.9 0.0
28/09:00pm 11.8 7.3 7.1 73 2.3 ESE 20 24 11 13 1027.1 1027.1 0.0
28/08:30pm 12.2 8.4 7.5 73 2.3 SE 17 20 9 11 1027.7 1027.7 0.0
28/08:00pm 12.3 8.5 7.6 73 2.3 SE 17 20 9 11 1027.8 1027.8 0.0
28/07:30pm 12.2 8.3 7.3 72 2.4 ESE 17 19 9 10 1027.4 1027.4 0.0
28/07:00pm 12.1 8.2 7.2 72 2.4 ESE 17 19 9 10 1027.2 1027.2 0.0
28/06:30pm 11.9 8.0 7.0 72 2.4 ESE 17 17 9 9 1027.2 1027.2 0.0
28/06:00pm 12.1 8.2 7.2 72 2.4 ESE 17 19 9 10 1027.0 1027.0 0.0
28/05:30pm 12.2 8.3 7.3 72 2.4 ESE 17 19 9 10 1027.0 1027.0 0.0
28/05:00pm 13.3 10.0 8.0 70 2.6 ESE 15 17 8 9 1027.0 1027.0 0.0
28/04:30pm 14.7 11.5 8.6 67 3.1 E 15 17 8 9 1027.1 1027.1 0.0
28/04:00pm 15.5 12.4 9.0 65 3.3 E 15 19 8 10 1027.1 1027.1 0.0
28/03:30pm 16.1 12.7 9.3 64 3.5 ENE 17 22 9 12 1027.2 1027.2 0.0
28/03:00pm 16.1 12.4 9.3 64 3.5 ENE 19 24 10 13 1027.2 1027.2 0.0
28/02:30pm 16.3 12.6 9.5 64 3.6 E 19 24 10 13 1027.4 1027.4 0.0
28/02:00pm 16.1 11.8 9.5 65 3.4 E 22 26 12 14 1027.4 1027.4 0.0
28/01:30pm 16.0 11.8 9.9 67 3.2 E 22 28 12 15 1027.7 1027.7 0.0
28/01:00pm 15.7 11.6 10.0 69 3.0 E 22 26 12 14 1028.0 1028.0 0.0
28/12:30pm 15.8 11.8 10.6 71 2.8 E 22 28 12 15 1028.6 1028.5 0.0
28/12:00pm 15.6 11.6 10.6 72 2.6 E 22 30 12 16 1028.8 1028.7 0.0
28/11:30am 14.9 10.4 10.1 73 2.5 E 24 30 13 16 1029.3 1029.2 0.0
28/11:00am 14.5 10.0 9.9 74 2.4 E 24 32 13 17 1029.9 1029.8 0.0
28/10:30am 14.2 9.6 9.6 74 2.4 ESE 24 30 13 16 1030.0 1029.9 0.0
28/10:00am 14.0 9.9 10.0 77 2.1 ESE 22 30 12 16 1030.1 1030.0 0.0
28/09:30am 13.3 8.7 9.7 79 1.9 E 24 30 13 16 1029.9 1029.8 0.0
28/09:00am 12.0 8.1 9.4 84 1.3 ESE 20 28 11 15 1029.7 1029.6 0.0
28/08:30am 10.7 6.6 8.5 86 1.1 ESE 20 26 11 14 1029.7 1029.6 0.0
28/08:00am 9.5 5.1 7.3 86 1.0 ESE 20 28 11 15 1029.6 1029.5 0.0
28/07:30am 9.2 4.3 6.8 85 1.1 ESE 22 28 12 15 1029.4 1029.3 0.0
28/07:00am 9.8 5.0 7.4 85 1.1 E 22 28 12 15 1029.3 1029.2 0.0
28/06:30am 9.6 5.1 7.0 84 1.2 ESE 20 26 11 14 1029.4 1029.3 0.0
28/06:00am 9.7 5.2 7.1 84 1.2 ESE 20 28 11 15 1029.4 1029.3 0.0
28/05:30am 9.5 5.0 6.9 84 1.2 ESE 20 24 11 13 1029.5 1029.4 0.0
28/05:00am 9.4 4.5 6.7 83 1.3 ESE 22 30 12 16 1029.6 1029.5 0.0
28/04:30am 8.9 4.2 6.0 82 1.3 ESE 20 24 11 13 1029.6 1029.5 0.0
28/04:00am 9.0 4.3 5.9 81 1.4 ESE 20 26 11 14 1029.8 1029.7 0.0
28/03:30am 9.4 4.4 6.3 81 1.4 ESE 22 28 12 15 1030.0 1029.9 0.0
28/03:00am 9.3 4.6 5.9 79 1.6 ESE 20 24 11 13 1030.2 1030.1 0.0
28/02:30am 9.6 4.5 6.1 79 1.6 ESE 22 26 12 14 1030.1 1030.0 0.0
28/02:00am 10.5 5.6 6.8 78 1.7 ESE 22 28 12 15 1030.1 1030.0 0.0
28/01:30am 10.2 5.2 6.4 77 1.8 ESE 22 26 12 14 1030.2 1030.1 0.0
28/01:00am 10.0 5.3 6.0 76 1.8 ESE 20 24 11 13 1030.4 1030.3 0.0
28/12:30am 9.9 5.1 5.5 74 2.0 ESE 20 24 11 13 1030.7 1030.6 0.0
28/12:00am 10.4 5.6 5.8 73 2.1 ESE 20 24 11 13 1030.9 1030.8 0.0
 
Date/Time
WST
Temp
°C
App
Temp
°C
Dew
Point
Rel
Hum
%
Delta-T
°C
Wind Press
QNH
hPa
Press
MSL
hPa
Rain
since 9 am
mm
Dir
 
Spd
km/h
Gust
km/h
Spd
kts
Gust
kts
27/11:30pm 10.4 5.6 5.6 72 2.2 ESE 20 26 11 14 1030.8 1030.7 0.0
27/11:00pm 10.7 5.9 5.7 71 2.3 ESE 20 24 11 13 1030.8 1030.7 0.0
27/10:30pm 10.9 5.8 5.9 71 2.3 ESE 22 26 12 14 1030.8 1030.7 0.0
27/10:00pm 11.2 6.1 6.1 71 2.4 ESE 22 28 12 15 1030.8 1030.7 0.0
27/09:30pm 11.1 6.0 6.0 71 2.4 ESE 22 26 12 14 1030.7 1030.6 0.0
27/09:00pm 11.0 6.3 6.0 71 2.3 ESE 20 24 11 13 1030.8 1030.7 0.0
27/08:30pm 11.2 6.5 5.9 70 2.5 ESE 20 24 11 13 1030.8 1030.7 0.0
27/08:00pm 11.8 7.2 6.5 70 2.5 ESE 20 24 11 13 1030.8 1030.7 0.0
27/07:30pm 11.8 7.4 6.5 70 2.5 ESE 19 24 10 13 1030.8 1030.7 0.0
27/07:00pm 12.2 7.9 7.1 71 2.4 SE 19 24 10 13 1030.5 1030.4 0.0
27/06:30pm 12.1 8.2 7.0 71 2.5 SE 17 22 9 12 1030.3 1030.2 0.0
27/06:00pm 12.7 8.9 7.4 70 2.6 SE 17 20 9 11 1030.2 1030.1 0.0
27/05:30pm 13.3 9.5 7.5 68 2.9 ESE 17 20 9 11 1030.1 1030.0 0.0
27/05:00pm 13.9 10.1 7.4 65 3.2 SE 17 20 9 11 1030.0 1029.9 0.0
27/04:30pm 15.0 10.9 7.8 62 3.6 ESE 19 24 10 13 1029.8 1029.7 0.0
27/04:00pm 15.8 11.8 8.3 61 3.8 ESE 19 24 10 13 1029.8 1029.7 0.0
27/03:30pm 16.2 12.0 8.2 59 4.1 E 20 28 11 15 1029.8 1029.7 0.0
27/03:00pm 16.5 12.1 9.0 61 3.9 E 22 30 12 16 1029.8 1029.7 0.0
27/02:30pm 16.7 12.0 9.4 62 3.8 E 24 32 13 17 1029.7 1029.6 0.0
27/02:00pm 16.9 13.1 9.8 63 3.7 E 20 28 11 15 1029.9 1029.8 0.0
27/01:30pm 16.4 12.7 9.6 64 3.6 E 19 26 10 14 1030.3 1030.2 0.0

Other Formats:

Comma delimited format used in spreadsheet applications
http://www.bom.gov.au/fwo/IDW60801/IDW60801.94600.axf

JavaScript Object Notation format (JSON) in row-major order
http://www.bom.gov.au/fwo/IDW60801/IDW60801.94600.json